Time;durP1;ratioP1;P1;durP2;ratioP2;P2;SDS_P1;SDS_P2;PMS_P1;PMS_P2;Temp;Humidity;BMP_temperature;BMP_pressure;BME280_temperature;BME280_humidity;BME280_pressure;Samples;Min_cycle;Max_cycle;Signal;HPM_P1;HPM_P2
2022/03/18 00:00:18;;;;;;;;;;;;;;;17.72;59.74;99565.13;2099997;28;20437;-56
2022/03/18 00:01:18;;;;;;;;;;;;;;;17.71;59.56;99569.66;2100874;28;19924;-55
2022/03/18 00:02:21;;;;;;;;;;;;;;;17.72;59.82;99570.50;2100197;28;19977;-56
2022/03/18 00:03:22;;;;;;;;;;;;;;;17.71;59.49;99566.97;2100227;28;19963;-54
2022/03/18 00:04:24;;;;;;;;;;;;;;;17.70;59.53;99575.22;2097677;28;19939;-56
2022/03/18 00:05:27;;;;;;;;;;;;;;;17.70;59.69;99572.53;2100607;28;20330;-56
2022/03/18 00:06:27;;;;;;;;;;;;;;;17.70;59.54;99580.59;2098076;28;19928;-57
2022/03/18 00:07:29;;;;;;;;;;;;;;;17.70;59.65;99580.59;2100856;28;19935;-54
2022/03/18 00:08:30;;;;;;;;;;;;;;;17.69;59.86;99584.25;2099901;28;20495;-56
2022/03/18 00:09:31;;;;;;;;;;;;;;;17.69;59.61;99586.94;2100488;28;19931;-56
2022/03/18 00:10:33;;;;;;;;;;;;;;;17.69;59.54;99586.94;2099365;28;19931;-57
2022/03/18 00:11:34;;;;;;;;;;;;;;;17.68;59.60;99591.47;2100614;28;20073;-55
2022/03/18 00:12:37;;;;;;;;;;;;;;;17.68;59.56;99590.66;2099517;28;19932;-55
2022/03/18 00:13:38;;;;;;;;;;;;;;;17.67;59.69;99592.50;2098768;28;19981;-56
2022/03/18 00:14:40;;;;;;;;;;;;;;;17.67;59.65;99589.00;2100504;28;20397;-56
2022/03/18 00:15:41;;;;;;;;;;;;;;;17.65;59.70;99595.34;2100519;28;19927;-56
2022/03/18 00:16:42;;;;;;;;;;;;;;;17.66;59.60;99598.88;2100768;28;20412;-56
2022/03/18 00:17:44;;;;;;;;;;;;;;;17.65;59.73;99603.41;2099987;28;19928;-55
2022/03/18 00:18:44;;;;;;;;;;;;;;;17.64;59.79;99600.91;2100603;28;20219;-60
2022/03/18 00:19:47;;;;;;;;;;;;;;;17.64;59.68;99596.38;2099391;28;19927;-57
2022/03/18 00:20:49;;;;;;;;;;;;;;;17.65;59.76;99605.25;2099540;28;19928;-56
2022/03/18 00:21:53;;;;;;;;;;;;;;;17.64;59.70;99607.09;2098379;28;19932;-57
2022/03/18 00:22:55;;;;;;;;;;;;;;;17.62;59.79;99603.75;2100863;28;19935;-57
2022/03/18 00:23:56;;;;;;;;;;;;;;;17.62;59.64;99598.38;2099881;28;19924;-57
2022/03/18 00:24:58;;;;;;;;;;;;;;;17.61;59.60;99599.41;2100360;28;19990;-57
2022/03/18 00:25:59;;;;;;;;;;;;;;;17.60;59.70;99600.41;2099687;28;19939;-56
2022/03/18 00:27:01;;;;;;;;;;;;;;;17.61;59.78;99604.78;2100157;28;19985;-57
2022/03/18 00:28:02;;;;;;;;;;;;;;;17.60;59.68;99605.75;2100296;28;19928;-57
2022/03/18 00:29:03;;;;;;;;;;;;;;;17.58;59.62;99602.44;2101061;28;19924;-57
2022/03/18 00:30:05;;;;;;;;;;;;;;;17.59;59.73;99603.28;2097630;28;19927;-56
2022/03/18 00:31:06;;;;;;;;;;;;;;;17.59;59.75;99609.47;2099743;28;20454;-57
2022/03/18 00:32:07;;;;;;;;;;;;;;;17.58;59.56;99598.94;2099820;28;20475;-57
2022/03/18 00:33:09;;;;;;;;;;;;;;;17.58;59.59;99605.13;2099934;28;20011;-57
2022/03/18 00:34:10;;;;;;;;;;;;;;;17.57;59.71;99608.78;2099660;28;20382;-57
2022/03/18 00:35:13;;;;;;;;;;;;;;;17.57;59.72;99606.09;2099926;28;19928;-57
2022/03/18 00:36:14;;;;;;;;;;;;;;;17.57;59.63;99606.09;2100235;28;19955;-57
2022/03/18 00:37:15;;;;;;;;;;;;;;;17.56;59.76;99607.13;2099939;28;19967;-57
2022/03/18 00:38:16;;;;;;;;;;;;;;;17.55;59.72;99602.78;2098401;28;19935;-56
2022/03/18 00:39:17;;;;;;;;;;;;;;;17.55;59.68;99602.78;2097932;28;19924;-56
2022/03/18 00:40:18;;;;;;;;;;;;;;;17.55;59.81;99607.28;2098960;28;19931;-57
2022/03/18 00:41:19;;;;;;;;;;;;;;;17.54;59.63;99595.72;2100359;28;19927;-57
2022/03/18 00:42:21;;;;;;;;;;;;;;;17.54;59.69;99603.78;2099451;28;19986;-57
2022/03/18 00:43:21;;;;;;;;;;;;;;;17.53;59.71;99593.25;2100379;28;20389;-57
2022/03/18 00:44:25;;;;;;;;;;;;;;;17.52;59.76;99595.06;2100195;28;21615;-57
2022/03/18 00:45:27;;;;;;;;;;;;;;;17.51;59.81;99596.06;2100058;28;19936;-56
2022/03/18 00:46:27;;;;;;;;;;;;;;;17.52;59.71;99591.53;2099683;28;19924;-57
2022/03/18 00:52:47;;;;;;;;;;;;;;;17.48;59.72;99593.75;2090812;28;20019;-58
2022/03/18 00:53:47;;;;;;;;;;;;;;;17.47;59.75;99599.25;2092488;28;19999;-57
2022/03/18 00:54:49;;;;;;;;;;;;;;;17.46;59.74;99594.94;2100125;28;19924;-55
2022/03/18 00:55:49;;;;;;;;;;;;;;;17.46;59.81;99592.25;2100410;28;20181;-56
2022/03/18 00:56:51;;;;;;;;;;;;;;;17.45;59.71;99596.78;2098441;28;20172;-58
2022/03/18 00:57:52;;;;;;;;;;;;;;;17.44;59.78;99597.78;2100616;28;19928;-57
2022/03/18 00:58:53;;;;;;;;;;;;;;;17.44;59.79;99597.78;2100477;28;19924;-55
2022/03/18 00:59:54;;;;;;;;;;;;;;;17.43;59.79;99596.94;2099629;28;19978;-57
2022/03/18 01:00:56;;;;;;;;;;;;;;;17.42;59.69;99594.44;2098368;28;19928;-56
2022/03/18 01:01:57;;;;;;;;;;;;;;;17.41;59.80;99593.63;2100008;28;19927;-56
2022/03/18 01:02:58;;;;;;;;;;;;;;;17.42;59.75;99597.13;2099926;28;19928;-57
2022/03/18 01:03:59;;;;;;;;;;;;;;;17.41;59.78;99601.66;2098783;28;19931;-56
2022/03/18 01:05:00;;;;;;;;;;;;;;;17.40;59.74;99589.22;2096434;28;19958;-55
2022/03/18 01:06:01;;;;;;;;;;;;;;;17.38;59.66;99595.78;2099543;28;20211;-54
2022/03/18 01:07:04;;;;;;;;;;;;;;;17.37;59.69;99594.94;2099717;28;19932;-56
2022/03/18 01:08:05;;;;;;;;;;;;;;;17.38;59.64;99590.41;2100409;28;19992;-57
2022/03/18 01:09:07;;;;;;;;;;;;;;;17.38;59.78;99607.38;2100296;28;20016;-56
2022/03/18 01:10:07;;;;;;;;;;;;;;;17.37;59.79;99594.94;2099485;28;20330;-55
2022/03/18 01:11:09;;;;;;;;;;;;;;;17.37;59.57;99610.22;2099778;28;20020;-56
2022/03/18 01:12:12;;;;;;;;;;;;;;;17.36;59.92;99604.00;2099721;28;19924;-57
2022/03/18 01:13:12;;;;;;;;;;;;;;;17.36;59.86;99603.19;2098390;28;20027;-56
2022/03/18 01:14:14;;;;;;;;;;;;;;;17.35;59.85;99601.50;2100546;28;19931;-57
2022/03/18 01:15:14;;;;;;;;;;;;;;;17.35;59.84;99601.50;2099579;28;20282;-56
2022/03/18 01:16:16;;;;;;;;;;;;;;;17.34;59.62;99594.47;2100494;28;19928;-56
2022/03/18 01:17:17;;;;;;;;;;;;;;;17.33;59.92;99598.16;2097825;28;19925;-55
2022/03/18 01:18:18;;;;;;;;;;;;;;;17.33;59.75;99598.16;2098771;28;20428;-57
2022/03/18 01:19:19;;;;;;;;;;;;;;;17.32;59.71;99591.94;2100088;28;19928;-57
2022/03/18 01:20:21;;;;;;;;;;;;;;;17.31;59.79;99595.63;2098173;28;20023;-56
2022/03/18 01:21:21;;;;;;;;;;;;;;;17.31;59.94;99600.16;2100580;28;20271;-56
2022/03/18 01:22:24;;;;;;;;;;;;;;;17.31;59.88;99594.81;2098522;28;19985;-55
2022/03/18 01:23:25;;;;;;;;;;;;;;;17.28;59.90;99596.00;2099024;28;20429;-55
2022/03/18 01:24:26;;;;;;;;;;;;;;;17.29;59.69;99599.50;2099254;28;19930;-56
2022/03/18 01:25:27;;;;;;;;;;;;;;;17.28;59.79;99592.47;2100144;28;20286;-56
2022/03/18 01:26:29;;;;;;;;;;;;;;;17.28;59.90;99601.34;2100287;28;19928;-56
2022/03/18 01:27:31;;;;;;;;;;;;;;;17.28;59.77;99605.88;2100396;28;20074;-56
2022/03/18 01:28:31;;;;;;;;;;;;;;;17.27;59.75;99604.19;2100736;28;20294;-54
2022/03/18 01:29:34;;;;;;;;;;;;;;;17.25;59.88;99596.34;2099823;28;19928;-57
2022/03/18 01:30:34;;;;;;;;;;;;;;;17.26;59.83;99602.53;2100405;28;20219;-56
2022/03/18 01:31:36;;;;;;;;;;;;;;;17.26;59.85;99605.22;2100151;28;20239;-56
2022/03/18 01:32:36;;;;;;;;;;;;;;;17.25;59.87;99606.22;2100568;28;20226;-55
2022/03/18 01:33:38;;;;;;;;;;;;;;;17.23;59.83;99601.03;2100683;28;20385;-55
2022/03/18 01:34:38;;;;;;;;;;;;;;;17.25;59.80;99608.91;2100205;28;19932;-57
2022/03/18 01:35:40;;;;;;;;;;;;;;;17.24;59.83;99608.03;2096881;28;19955;-57
2022/03/18 01:36:41;;;;;;;;;;;;;;;17.21;60.08;99605.72;2097529;28;20576;-55
2022/03/18 01:37:44;;;;;;;;;;;;;;;17.20;59.79;99602.19;2099048;28;19928;-56
2022/03/18 01:38:44;;;;;;;;;;;;;;;17.20;59.97;99604.03;2100551;28;19935;-57
2022/03/18 01:39:46;;;;;;;;;;;;;;;17.19;59.87;99597.84;2102004;28;19950;-57
2022/03/18 01:40:46;;;;;;;;;;;;;;;17.18;59.90;99596.16;2102096;28;20057;-56
2022/03/18 01:41:48;;;;;;;;;;;;;;;17.17;59.81;99594.50;2101793;28;19928;-57
2022/03/18 01:42:48;;;;;;;;;;;;;;;17.18;59.88;99600.69;2101698;28;19985;-57
2022/03/18 01:43:50;;;;;;;;;;;;;;;17.18;59.87;99601.53;2102541;28;19969;-56
2022/03/18 01:44:51;;;;;;;;;;;;;;;17.17;60.00;99604.41;2099825;28;20028;-56
2022/03/18 01:45:53;;;;;;;;;;;;;;;17.16;59.89;99603.56;2102467;28;19963;-57
2022/03/18 01:46:53;;;;;;;;;;;;;;;17.15;59.98;99601.03;2101926;28;20430;-55
2022/03/18 01:47:55;;;;;;;;;;;;;;;17.13;59.83;99593.19;2102481;28;19951;-57
2022/03/18 01:48:55;;;;;;;;;;;;;;;17.14;59.86;99594.84;2101804;28;20589;-57
2022/03/18 01:49:58;;;;;;;;;;;;;;;17.14;59.95;99594.84;2102341;28;20109;-56
2022/03/18 01:50:58;;;;;;;;;;;;;;;17.13;59.87;99592.31;2100997;28;19935;-55
2022/03/18 01:52:00;;;;;;;;;;;;;;;17.12;59.91;99591.50;2101486;28;20928;-56
2022/03/18 01:53:02;;;;;;;;;;;;;;;17.11;59.91;99589.81;2100439;28;20039;-56
2022/03/18 01:55:22;;;;;;;;;;;;;;;17.11;59.89;99592.50;2101818;28;20111;-56
2022/03/18 01:56:23;;;;;;;;;;;;;;;17.11;59.89;99597.88;2102079;28;19976;-56
2022/03/18 01:57:26;;;;;;;;;;;;;;;17.09;59.85;99594.50;2101157;28;19928;-56
2022/03/18 01:58:26;;;;;;;;;;;;;;;17.09;59.94;99593.69;2102542;28;20690;-53
2022/03/18 01:59:28;;;;;;;;;;;;;;;17.08;59.98;99590.16;2102150;28;20197;-56
2022/03/18 02:00:29;;;;;;;;;;;;;;;17.08;59.90;99586.66;2101739;28;20131;-58
2022/03/18 02:01:30;;;;;;;;;;;;;;;17.07;59.92;99593.00;2101283;28;20180;-54
2022/03/18 02:02:31;;;;;;;;;;;;;;;17.07;60.00;99588.47;2102782;28;19992;-56
2022/03/18 02:03:32;;;;;;;;;;;;;;;17.06;59.89;99594.84;2101319;28;19986;-57
2022/03/18 02:04:33;;;;;;;;;;;;;;;17.05;60.02;99587.84;2102890;28;19928;-57
2022/03/18 02:05:34;;;;;;;;;;;;;;;17.05;60.01;99581.63;2101405;28;19928;-55
2022/03/18 02:06:35;;;;;;;;;;;;;;;17.04;59.93;99588.81;2100316;28;19980;-56
2022/03/18 02:07:37;;;;;;;;;;;;;;;17.05;59.98;99589.66;2101317;28;19933;-57
2022/03/18 02:08:42;;;;;;;;;;;;;;;17.03;59.94;99595.19;2102520;28;20124;-56
2022/03/18 02:09:44;;;;;;;;;;;;;;;17.03;60.03;99602.41;2101154;28;20232;-56
2022/03/18 02:10:45;;;;;;;;;;;;;;;17.01;60.07;99586.50;2100991;28;20586;-55
2022/03/18 02:11:47;;;;;;;;;;;;;;;17.02;60.01;99584.63;2100702;28;20500;-55
2022/03/18 02:12:48;;;;;;;;;;;;;;;17.01;59.95;99588.34;2101030;28;20194;-55
2022/03/18 02:13:50;;;;;;;;;;;;;;;17.00;59.97;99586.66;2101487;28;20769;-56
2022/03/18 02:14:50;;;;;;;;;;;;;;;16.98;60.05;99590.34;2100555;28;19931;-57
2022/03/18 02:15:52;;;;;;;;;;;;;;;16.98;60.04;99589.50;2100763;28;19924;-56
2022/03/18 02:16:52;;;;;;;;;;;;;;;16.98;60.09;99597.56;2101324;28;19950;-56
2022/03/18 02:17:54;;;;;;;;;;;;;;;16.96;60.00;99597.69;2100292;28;19934;-56
2022/03/18 02:18:54;;;;;;;;;;;;;;;16.96;60.02;99596.88;2101176;28;20294;-57
2022/03/18 02:19:56;;;;;;;;;;;;;;;16.96;60.04;99597.69;2100645;28;19936;-56
2022/03/18 02:20:56;;;;;;;;;;;;;;;16.95;60.05;99596.03;2099842;28;20010;-57
2022/03/18 02:21:58;;;;;;;;;;;;;;;16.96;59.85;99591.50;2101293;28;20049;-57
2022/03/18 02:23:00;;;;;;;;;;;;;;;16.94;60.08;99593.56;2101243;28;19928;-55
2022/03/18 02:24:02;;;;;;;;;;;;;;;16.94;60.05;99594.38;2100384;28;19924;-55
2022/03/18 02:25:04;;;;;;;;;;;;;;;16.94;60.04;99593.56;2100370;28;19928;-56
2022/03/18 02:26:05;;;;;;;;;;;;;;;16.93;60.05;99597.22;2098174;28;20389;-56
2022/03/18 02:27:06;;;;;;;;;;;;;;;16.92;60.00;99590.19;2101875;28;19930;-56
2022/03/18 02:28:08;;;;;;;;;;;;;;;16.91;60.04;99588.50;2101937;28;20543;-56
2022/03/18 02:29:09;;;;;;;;;;;;;;;16.91;60.04;99592.03;2100228;28;20571;-56
2022/03/18 02:30:11;;;;;;;;;;;;;;;16.91;60.07;99593.84;2100202;28;20099;-56
2022/03/18 02:31:11;;;;;;;;;;;;;;;16.90;60.18;99593.03;2101600;28;19935;-55
2022/03/18 02:32:13;;;;;;;;;;;;;;;16.90;60.08;99586.84;2099741;28;19954;-56
2022/03/18 02:33:14;;;;;;;;;;;;;;;16.90;60.07;99592.19;2101311;28;19928;-56
2022/03/18 02:34:15;;;;;;;;;;;;;;;16.88;60.05;99600.41;2101746;28;19928;-56
2022/03/18 02:35:16;;;;;;;;;;;;;;;16.88;60.05;99595.06;2100309;28;20023;-56
2022/03/18 02:36:18;;;;;;;;;;;;;;;16.87;60.08;99596.06;2102293;28;19951;-57
2022/03/18 02:37:18;;;;;;;;;;;;;;;16.86;60.22;99601.59;2101285;28;19927;-56
2022/03/18 02:38:21;;;;;;;;;;;;;;;16.86;60.22;99598.91;2102634;28;19924;-57
2022/03/18 02:39:22;;;;;;;;;;;;;;;16.84;60.15;99599.06;2100601;28;20003;-55
2022/03/18 02:40:24;;;;;;;;;;;;;;;16.86;60.14;99601.59;2103824;28;20318;-55
2022/03/18 02:41:24;;;;;;;;;;;;;;;16.86;60.14;99601.59;2103598;28;20161;-57
2022/03/18 02:42:26;;;;;;;;;;;;;;;16.84;60.20;99604.44;2103040;28;19924;-58
2022/03/18 02:43:26;;;;;;;;;;;;;;;16.83;60.11;99601.94;2106325;28;19935;-58
2022/03/18 02:44:28;;;;;;;;;;;;;;;16.82;60.13;99602.91;2105716;28;19928;-57
2022/03/18 02:45:31;;;;;;;;;;;;;;;16.81;60.28;99610.13;2099765;28;20274;-58
2022/03/18 02:46:33;;;;;;;;;;;;;;;16.80;60.25;99597.75;2099404;28;19928;-57
2022/03/18 02:47:33;;;;;;;;;;;;;;;16.79;60.21;99609.44;2100935;28;20382;-55
2022/03/18 02:48:35;;;;;;;;;;;;;;;16.79;60.22;99606.78;2101215;28;19930;-56
2022/03/18 02:49:35;;;;;;;;;;;;;;;16.79;60.24;99603.25;2100433;28;19952;-54
2022/03/18 02:50:37;;;;;;;;;;;;;;;16.78;60.28;99605.09;2100559;28;20095;-57
2022/03/18 02:51:38;;;;;;;;;;;;;;;16.77;60.21;99603.44;2100307;28;19946;-57
2022/03/18 02:52:40;;;;;;;;;;;;;;;16.77;60.21;99608.81;2101386;28;19928;-54
2022/03/18 02:53:42;;;;;;;;;;;;;;;16.75;60.23;99606.25;2100434;28;19924;-56
2022/03/18 02:54:44;;;;;;;;;;;;;;;16.77;60.32;99613.28;2096782;28;19936;-57
2022/03/18 02:55:45;;;;;;;;;;;;;;;16.75;60.22;99603.56;2085155;28;19931;-57
2022/03/18 02:56:47;;;;;;;;;;;;;;;16.75;60.26;99614.28;2090785;28;19958;-56
2022/03/18 02:57:47;;;;;;;;;;;;;;;16.75;60.21;99608.09;2091955;28;20074;-55
2022/03/18 02:58:49;;;;;;;;;;;;;;;16.73;60.19;99607.41;2092383;28;20425;-56
2022/03/18 02:59:49;;;;;;;;;;;;;;;16.73;60.21;99602.06;2091726;28;20258;-55
2022/03/18 03:00:51;;;;;;;;;;;;;;;16.73;60.34;99602.88;2091784;28;20038;-56
2022/03/18 03:01:52;;;;;;;;;;;;;;;16.72;60.20;99611.94;2089366;28;19928;-57
2022/03/18 03:02:53;;;;;;;;;;;;;;;16.71;60.08;99610.25;2092478;28;20518;-56
2022/03/18 03:03:54;;;;;;;;;;;;;;;16.72;60.25;99605.75;2091988;28;19924;-56
2022/03/18 03:08:00;;;;;;;;;;;;;;;16.68;60.28;99613.25;2074074;28;19929;-55
2022/03/18 03:09:03;;;;;;;;;;;;;;;16.69;60.31;99614.13;2096515;27;19951;-57
2022/03/18 03:10:04;;;;;;;;;;;;;;;16.68;60.38;99615.94;2091915;28;20198;-56
2022/03/18 03:11:05;;;;;;;;;;;;;;;16.67;60.38;99619.63;2091969;28;19943;-54
2022/03/18 03:12:06;;;;;;;;;;;;;;;16.66;60.28;99617.97;2090288;28;19924;-55
2022/03/18 03:13:10;;;;;;;;;;;;;;;16.65;60.25;99618.97;2092265;28;19931;-57
2022/03/18 03:14:11;;;;;;;;;;;;;;;16.67;60.38;99618.81;2092504;28;20262;-55
2022/03/18 03:15:12;;;;;;;;;;;;;;;16.66;60.28;99622.47;2091559;28;19932;-54
2022/03/18 03:16:13;;;;;;;;;;;;;;;16.64;60.45;99630.69;2092148;28;19925;-57
2022/03/18 03:17:14;;;;;;;;;;;;;;;16.65;60.39;99618.97;2091824;28;19928;-54
2022/03/18 03:18:15;;;;;;;;;;;;;;;16.63;60.38;99621.00;2096430;28;20333;-56
2022/03/18 03:19:17;;;;;;;;;;;;;;;16.63;60.38;99615.63;2100247;28;19934;-56
2022/03/18 03:20:17;;;;;;;;;;;;;;;16.63;60.40;99617.44;2099731;28;20453;-55
2022/03/18 03:21:19;;;;;;;;;;;;;;;16.62;60.26;99616.63;2099634;28;19931;-56
2022/03/18 03:22:20;;;;;;;;;;;;;;;16.62;60.38;99616.63;2100945;28;19995;-57
2022/03/18 03:23:23;;;;;;;;;;;;;;;16.62;60.27;99623.81;2100633;28;20005;-55
2022/03/18 03:24:26;;;;;;;;;;;;;;;16.61;60.39;99625.66;2099442;28;20328;-56
2022/03/18 03:25:27;;;;;;;;;;;;;;;16.60;60.43;99618.63;2099899;28;19947;-57
2022/03/18 03:26:28;;;;;;;;;;;;;;;16.59;60.51;99630.34;2097337;28;20523;-56
2022/03/18 03:27:30;;;;;;;;;;;;;;;16.59;60.41;99622.31;2100833;28;19946;-55
2022/03/18 03:28:31;;;;;;;;;;;;;;;16.58;60.57;99617.97;2100203;28;19992;-57
2022/03/18 03:29:32;;;;;;;;;;;;;;;16.59;60.35;99627.66;2100920;28;19928;-55
2022/03/18 03:30:33;;;;;;;;;;;;;;;16.57;60.36;99629.66;2100221;28;20015;-56
2022/03/18 03:31:35;;;;;;;;;;;;;;;16.58;60.36;99631.34;2100705;28;20027;-56
2022/03/18 03:32:36;;;;;;;;;;;;;;;16.57;60.39;99634.19;2099999;28;19924;-56
2022/03/18 03:33:38;;;;;;;;;;;;;;;16.54;60.50;99624.66;2096913;28;19962;-55
2022/03/18 03:34:38;;;;;;;;;;;;;;;16.54;60.35;99633.50;2097042;28;19938;-56
2022/03/18 03:35:40;;;;;;;;;;;;;;;16.54;60.47;99635.34;2100639;28;20576;-56
2022/03/18 03:36:41;;;;;;;;;;;;;;;16.53;60.44;99637.19;2098887;28;19924;-56
2022/03/18 03:37:43;;;;;;;;;;;;;;;16.52;60.52;99632.88;2099575;28;20564;-56
2022/03/18 03:38:43;;;;;;;;;;;;;;;16.52;60.42;99627.50;2099193;28;19992;-56
2022/03/18 03:39:46;;;;;;;;;;;;;;;16.52;60.40;99634.72;2099499;28;20189;-55
2022/03/18 03:40:49;;;;;;;;;;;;;;;16.52;60.46;99632.03;2097617;28;19951;-57
2022/03/18 03:41:49;;;;;;;;;;;;;;;16.52;60.50;99634.72;2100708;28;19953;-57
2022/03/18 03:42:52;;;;;;;;;;;;;;;16.50;60.50;99642.06;2098458;28;19985;-56
2022/03/18 03:43:54;;;;;;;;;;;;;;;16.51;60.49;99643.72;2100885;28;19928;-56
2022/03/18 03:44:55;;;;;;;;;;;;;;;16.49;60.54;99635.88;2100005;28;20042;-56
2022/03/18 03:45:56;;;;;;;;;;;;;;;16.48;60.55;99630.66;2100413;28;19928;-54
2022/03/18 03:46:57;;;;;;;;;;;;;;;16.49;60.54;99635.00;2100414;28;19931;-57
2022/03/18 03:47:58;;;;;;;;;;;;;;;16.48;60.48;99641.38;2099762;28;19954;-55
2022/03/18 03:48:59;;;;;;;;;;;;;;;16.48;60.48;99638.69;2099981;28;20011;-57
2022/03/18 03:50:00;;;;;;;;;;;;;;;16.46;60.54;99636.19;2098683;28;20260;-56
2022/03/18 03:51:01;;;;;;;;;;;;;;;16.46;60.57;99644.22;2099628;28;20019;-57
2022/03/18 03:52:02;;;;;;;;;;;;;;;16.46;60.57;99638.03;2094422;28;19935;-56
2022/03/18 03:53:04;;;;;;;;;;;;;;;16.45;60.57;99634.50;2095292;28;19924;-55
2022/03/18 03:54:05;;;;;;;;;;;;;;;16.46;60.48;99643.38;2097562;28;19985;-56
2022/03/18 03:55:09;;;;;;;;;;;;;;;16.45;60.49;99652.41;2099834;28;20374;-56
2022/03/18 03:56:09;;;;;;;;;;;;;;;16.44;60.60;99642.72;2101192;28;19930;-56
2022/03/18 03:57:11;;;;;;;;;;;;;;;16.42;60.62;99642.88;2100568;28;20463;-55
2022/03/18 03:58:11;;;;;;;;;;;;;;;16.42;60.52;99642.03;2099279;28;20402;-56
2022/03/18 03:59:13;;;;;;;;;;;;;;;16.42;60.59;99645.56;2100141;28;19924;-55
2022/03/18 04:00:15;;;;;;;;;;;;;;;16.41;60.51;99640.34;2100106;28;20031;-56
2022/03/18 04:01:17;;;;;;;;;;;;;;;16.42;60.67;99642.03;2098176;28;20334;-56
2022/03/18 04:02:18;;;;;;;;;;;;;;;16.40;60.64;99642.19;2099799;28;20016;-56
2022/03/18 04:03:20;;;;;;;;;;;;;;;16.42;60.55;99644.72;2100437;28;19971;-56
2022/03/18 04:04:20;;;;;;;;;;;;;;;16.40;60.55;99646.72;2100278;28;20004;-55
2022/03/18 04:05:22;;;;;;;;;;;;;;;16.39;60.72;99637.84;2097326;28;19928;-55
2022/03/18 04:06:23;;;;;;;;;;;;;;;16.39;60.59;99639.69;2100585;28;19943;-56
2022/03/18 04:07:25;;;;;;;;;;;;;;;16.38;60.51;99643.34;2098664;28;20302;-56
2022/03/18 04:08:26;;;;;;;;;;;;;;;16.39;60.67;99639.69;2098785;28;20118;-56
2022/03/18 04:09:27;;;;;;;;;;;;;;;16.38;60.63;99636.19;2100414;28;19997;-56
2022/03/18 04:10:29;;;;;;;;;;;;;;;16.37;60.62;99637.19;2098251;28;19931;-55
2022/03/18 04:11:31;;;;;;;;;;;;;;;16.36;60.66;99637.34;2100752;28;20035;-55
2022/03/18 04:12:32;;;;;;;;;;;;;;;16.36;60.45;99632.84;2100648;28;20526;-57
2022/03/18 04:13:34;;;;;;;;;;;;;;;16.37;60.69;99639.84;2100534;28;19928;-56
2022/03/18 04:14:34;;;;;;;;;;;;;;;16.36;60.58;99632.84;2100414;28;20056;-56
2022/03/18 04:15:36;;;;;;;;;;;;;;;16.34;60.64;99631.31;2099762;28;20150;-57
2022/03/18 04:16:36;;;;;;;;;;;;;;;16.34;60.69;99639.34;2100945;28;20291;-56
2022/03/18 04:17:39;;;;;;;;;;;;;;;16.33;60.63;99627.81;2098953;28;20475;-57
2022/03/18 04:18:39;;;;;;;;;;;;;;;16.33;60.77;99627.81;2100730;28;19928;-56
2022/03/18 04:19:41;;;;;;;;;;;;;;;16.32;60.65;99634.16;2099792;28;19928;-56
2022/03/18 04:20:41;;;;;;;;;;;;;;;16.31;60.62;99636.00;2100065;28;19924;-55
2022/03/18 04:21:43;;;;;;;;;;;;;;;16.31;60.74;99638.66;2099988;28;20406;-57
2022/03/18 04:22:44;;;;;;;;;;;;;;;16.31;60.60;99633.31;2100849;28;19939;-56
2022/03/18 04:23:45;;;;;;;;;;;;;;;16.30;60.76;99634.31;2097141;28;20353;-57
2022/03/18 04:24:46;;;;;;;;;;;;;;;16.31;60.79;99635.16;2100834;28;19928;-56
2022/03/18 04:25:51;;;;;;;;;;;;;;;16.30;60.65;99639.69;2100118;28;20370;-56
2022/03/18 04:26:51;;;;;;;;;;;;;;;16.29;60.64;99639.84;2101261;28;19978;-56
2022/03/18 04:27:53;;;;;;;;;;;;;;;16.28;60.68;99630.97;2099416;28;20448;-54
2022/03/18 04:28:54;;;;;;;;;;;;;;;16.28;60.73;99639.00;2100651;28;20038;-57
2022/03/18 04:29:55;;;;;;;;;;;;;;;16.27;60.68;99640.00;2099797;28;20348;-55
2022/03/18 04:30:56;;;;;;;;;;;;;;;16.27;60.75;99647.22;2099877;28;20524;-57
2022/03/18 04:31:58;;;;;;;;;;;;;;;16.28;60.68;99640.84;2099139;28;19924;-56
2022/03/18 04:32:59;;;;;;;;;;;;;;;16.26;60.70;99640.16;2100118;28;19935;-56
2022/03/18 04:34:00;;;;;;;;;;;;;;;16.25;60.75;99647.38;2097379;28;20026;-56
2022/03/18 04:35:01;;;;;;;;;;;;;;;16.25;60.63;99638.50;2099078;28;20484;-56
2022/03/18 04:36:02;;;;;;;;;;;;;;;16.24;60.68;99644.84;2099490;28;20185;-56
2022/03/18 04:37:04;;;;;;;;;;;;;;;16.23;60.75;99641.31;2100806;28;19924;-56
2022/03/18 04:38:06;;;;;;;;;;;;;;;16.24;60.72;99648.38;2100095;28;19932;-56
2022/03/18 04:39:06;;;;;;;;;;;;;;;16.24;60.69;99645.69;2099218;28;20308;-56
2022/03/18 04:40:09;;;;;;;;;;;;;;;16.23;60.60;99646.69;2099369;28;20200;-56
2022/03/18 04:41:11;;;;;;;;;;;;;;;16.24;60.70;99644.84;2097878;28;20162;-56
2022/03/18 04:42:13;;;;;;;;;;;;;;;16.22;60.73;99641.50;2097620;28;19928;-56
2022/03/18 04:43:13;;;;;;;;;;;;;;;16.22;60.71;99650.38;2100478;28;19973;-55
2022/03/18 04:44:15;;;;;;;;;;;;;;;16.22;60.73;99650.38;2099587;28;19932;-57
2022/03/18 04:45:17;;;;;;;;;;;;;;;16.21;60.76;99651.34;2100295;28;19924;-55
2022/03/18 04:46:17;;;;;;;;;;;;;;;16.20;60.79;99648.84;2100194;28;19928;-56
2022/03/18 04:47:19;;;;;;;;;;;;;;;16.20;60.83;99648.84;2100549;28;20365;-56
2022/03/18 04:48:19;;;;;;;;;;;;;;;16.19;60.80;99653.38;2099842;28;20113;-58
2022/03/18 04:49:21;;;;;;;;;;;;;;;16.19;60.88;99650.69;2100682;28;19928;-55
2022/03/18 04:50:22;;;;;;;;;;;;;;;16.18;60.78;99651.69;2099436;28;19928;-57
2022/03/18 04:51:23;;;;;;;;;;;;;;;16.18;60.80;99656.19;2098778;28;19966;-56
2022/03/18 04:52:24;;;;;;;;;;;;;;;16.16;60.91;99653.69;2100515;28;20055;-57
2022/03/18 04:53:26;;;;;;;;;;;;;;;16.16;60.86;99650.16;2099767;28;19924;-55
2022/03/18 04:54:26;;;;;;;;;;;;;;;16.15;60.93;99652.00;2100387;28;20390;-53
2022/03/18 04:55:28;;;;;;;;;;;;;;;16.16;60.79;99656.38;2100260;28;20045;-57
2022/03/18 04:57:50;;;;;;;;;;;;;;;16.16;60.74;99652.84;2099649;28;19924;-57
2022/03/18 04:58:50;;;;;;;;;;;;;;;16.15;60.84;99652.00;2097986;28;19993;-56
2022/03/18 04:59:53;;;;;;;;;;;;;;;16.14;60.87;99653.03;2099627;28;20132;-56
2022/03/18 05:00:53;;;;;;;;;;;;;;;16.13;60.87;99648.69;2099523;28;19924;-55
2022/03/18 05:01:55;;;;;;;;;;;;;;;16.13;60.81;99659.38;2099366;28;19958;-56
2022/03/18 05:02:56;;;;;;;;;;;;;;;16.12;60.84;99663.03;2099969;28;19947;-57
2022/03/18 05:03:57;;;;;;;;;;;;;;;16.11;60.82;99656.03;2100536;28;20278;-58
2022/03/18 05:04:58;;;;;;;;;;;;;;;16.11;60.80;99649.84;2099777;28;20004;-58
2022/03/18 05:06:00;;;;;;;;;;;;;;;16.11;60.91;99649.84;2100476;28;19924;-56
2022/03/18 05:07:01;;;;;;;;;;;;;;;16.11;60.82;99652.50;2098470;28;19960;-54
2022/03/18 05:08:03;;;;;;;;;;;;;;;16.12;60.81;99649.66;2100573;28;19924;-55
2022/03/18 05:09:04;;;;;;;;;;;;;;;16.13;60.67;99656.72;2099947;28;20238;-56
2022/03/18 05:10:06;;;;;;;;;;;;;;;16.15;60.74;99656.53;2099603;28;20193;-55
2022/03/18 05:11:07;;;;;;;;;;;;;;;16.16;60.77;99658.19;2100321;28;19935;-58
2022/03/18 05:12:10;;;;;;;;;;;;;;;16.19;60.60;99657.91;2097867;28;19966;-56
2022/03/18 05:13:12;;;;;;;;;;;;;;;16.21;60.59;99655.88;2099133;28;19939;-57
2022/03/18 05:14:14;;;;;;;;;;;;;;;16.23;60.61;99651.19;2099522;28;20366;-55
2022/03/18 05:15:16;;;;;;;;;;;;;;;16.26;60.72;99658.91;2100101;28;20019;-57
2022/03/18 05:16:17;;;;;;;;;;;;;;;16.27;60.82;99656.06;2099961;28;19928;-57
2022/03/18 05:17:18;;;;;;;;;;;;;;;16.30;60.79;99654.91;2099880;28;19935;-58
2022/03/18 05:18:19;;;;;;;;;;;;;;;16.33;60.90;99661.78;2099505;28;20061;-56
2022/03/18 05:19:20;;;;;;;;;;;;;;;16.36;60.76;99656.09;2100604;28;19935;-56
2022/03/18 05:20:21;;;;;;;;;;;;;;;16.39;60.62;99658.44;2099371;28;19932;-57
2022/03/18 05:21:23;;;;;;;;;;;;;;;16.41;60.86;99657.28;2098197;28;20281;-57
2022/03/18 05:22:23;;;;;;;;;;;;;;;16.44;60.75;99656.13;2099530;28;20265;-54
2022/03/18 05:23:25;;;;;;;;;;;;;;;16.48;60.76;99662.81;2100294;28;20035;-58
2022/03/18 05:24:26;;;;;;;;;;;;;;;16.50;60.79;99666.16;2100141;28;19924;-58
2022/03/18 05:25:27;;;;;;;;;;;;;;;16.53;60.78;99672.00;2101015;28;19928;-56
2022/03/18 05:26:28;;;;;;;;;;;;;;;16.56;60.73;99665.50;2100094;28;20015;-57
2022/03/18 05:27:31;;;;;;;;;;;;;;;16.59;60.62;99665.16;2099803;28;20025;-55
2022/03/18 05:28:31;;;;;;;;;;;;;;;16.63;60.59;99668.34;2100288;28;19930;-56
2022/03/18 05:29:33;;;;;;;;;;;;;;;16.65;60.53;99669.84;2098599;28;19932;-56
2022/03/18 05:30:34;;;;;;;;;;;;;;;16.68;60.54;99666.00;2099791;28;20505;-58